Friday, November 17, 2017, 9:24 PM GMT
Back to Local

CWQV, Puinte Claveau

Location: , , Canada Lat: 48.267
Local Time: 9:24 PM GMT (21:24 GMT) Lon: -70.117
Time Zone: GMT Elev: 0 ft

Show me the last for .
Show Coded

Time T Td Feel RH Dir Speed Gust Alt SLP Vis Weather Sky Remarks
2017-11-17 21:00 24 18 4 77 280° 35 44 - - 0 Peak wind: 43 mph (38 kts) from 280° at 53 min
2017-11-17 20:00 25 20 6 79 280° 33 43 - - 0 Peak wind: 47 mph (41 kts) from 280° at 25 min
2017-11-17 19:00 25 19 5 78 280° 37 46 - - 0 Peak wind: 46 mph (40 kts) from 280° at 33 min
2017-11-17 18:00 28 22 9 79 280° 35 45 - - 0 Peak wind: 46 mph (40 kts) from 280° at 09 min
2017-11-17 17:00 26 20 7 78 280° 31 40 - - 0 Peak wind: 44 mph (39 kts) from 280° at 05 min
2017-11-17 16:00 26 22 7 83 280° 35 45 - - 0 Peak wind: 44 mph (39 kts) from 280° at 51 min
2017-11-17 15:00 29 22 12 73 280° 33 41 - - 0 Peak wind: 44 mph (39 kts) from 290° at 05 min
2017-11-17 14:00 28 23 10 79 280° 36 43 - - 0 Peak wind: 46 mph (40 kts) from 280° at 34 min
2017-11-17 13:00 31 24 15 73 280° 32 40 - - 0 Peak wind: 41 mph (36 kts) from 280° at 15 min
2017-11-17 12:00 31 26 15 80 280° 35 41 - - 0 Peak wind: 41 mph (36 kts) from 270° at 48 min
2017-11-17 11:00 36 30 22 81 280° 24 31 - - 0 Peak wind: 32 mph (28 kts) from 290° at 40 min
2017-11-17 10:00 36 32 25 82 280° 16 23 - - 0 Peak wind: 23 mph (20 kts) from 290° at 59 min
2017-11-17 09:00 36 32 25 84 280° 12 21 - - 0 Peak wind: 20 mph (18 kts) from 300° at 58 min
2017-11-17 08:00 35 33 24 93 280° 13 18 - - 0 None
2017-11-17 07:00 35 33 28 91 270° 10 - - - 0 None
2017-11-17 06:00 35 32 - 86 - Calm - - - 0 None
2017-11-17 05:00 35 31 31 84 70° 5 - - - 0 None
2017-11-17 04:00 36 31 33 84 80° 3 - - - 0 None
2017-11-17 03:00 35 32 33 86 60° 3 - - - 0 None
2017-11-17 02:00 36 31 32 81 60° 6 - - - 0 None
2017-11-17 01:00 36 32 30 83 60° 8 - - - 0 None
2017-11-17 00:00 36 32 29 84 60° 9 - - - 0 None
2017-11-16 23:00 36 32 29 85 70° 9 - - - 0 None
2017-11-16 22:00 35 31 29 84 60° 8 - - - 0 None

Support USWX by starting your Amazon purchase here.